createdAt,value
2022-08-03T00:00:16.090Z,101362.38
2022-08-03T00:02:48.390Z,101360.13
2022-08-03T00:05:20.808Z,101365.38
2022-08-03T00:07:53.000Z,101365.06
2022-08-03T00:10:25.420Z,101367.28
2022-08-03T00:12:57.719Z,101369.47
2022-08-03T00:15:30.023Z,101370.00
2022-08-03T00:18:02.322Z,101365.84
2022-08-03T00:20:34.727Z,101362.75
2022-08-03T00:23:06.918Z,101357.53
2022-08-03T00:25:39.160Z,101364.41
2022-08-03T00:28:11.868Z,101367.44
2022-08-03T00:30:44.206Z,101356.06
2022-08-03T00:33:17.077Z,101352.72
2022-08-03T00:35:50.935Z,101355.22
2022-08-03T00:38:23.432Z,101363.75
2022-08-03T00:40:56.524Z,101357.69
2022-08-03T00:43:28.642Z,101356.25
2022-08-03T00:46:00.855Z,101351.84
2022-08-03T00:48:33.885Z,101351.50
2022-08-03T00:51:06.958Z,101349.03
2022-08-03T00:53:39.877Z,101354.81
2022-08-03T00:56:16.092Z,101356.16
2022-08-03T00:58:48.579Z,101354.53
2022-08-03T01:01:20.765Z,101360.31
2022-08-03T01:03:53.134Z,101351.16
2022-08-03T01:07:10.728Z,101355.88
2022-08-03T01:10:07.495Z,101352.81
2022-08-03T01:12:52.747Z,101351.69
2022-08-03T01:15:55.373Z,101350.50
2022-08-03T01:18:32.993Z,101351.59
2022-08-03T01:21:11.139Z,101348.47
2022-08-03T01:23:57.519Z,101346.78
2022-08-03T01:26:39.035Z,101346.72
2022-08-03T01:29:36.017Z,101343.94
2022-08-03T01:32:53.242Z,101344.44
2022-08-03T01:35:27.441Z,101347.47
2022-08-03T01:38:05.310Z,101340.53
2022-08-03T01:40:40.218Z,101340.78
2022-08-03T01:43:15.690Z,101340.47
2022-08-03T01:46:09.038Z,101346.00
2022-08-03T01:48:43.052Z,101339.66
2022-08-03T01:51:17.348Z,101341.56
2022-08-03T01:53:51.283Z,101336.34
2022-08-03T01:56:25.199Z,101341.03
2022-08-03T01:58:59.128Z,101345.72
2022-08-03T02:02:28.733Z,101334.31
2022-08-03T02:04:26.014Z,101331.81
2022-08-03T02:07:01.874Z,101331.22
2022-08-03T02:09:38.290Z,101331.22
2022-08-03T02:12:11.491Z,101337.03
2022-08-03T02:14:44.779Z,101334.53
2022-08-03T02:17:17.276Z,101329.25
2022-08-03T02:19:50.909Z,101320.66
2022-08-03T02:22:25.332Z,101330.03
2022-08-03T02:24:57.875Z,101333.34
2022-08-03T02:27:32.465Z,101331.06
2022-08-03T02:30:09.223Z,101326.66
2022-08-03T02:32:43.972Z,101326.09
2022-08-03T02:35:28.535Z,101321.66
2022-08-03T02:38:04.595Z,101321.09
2022-08-03T02:40:37.288Z,101326.88
2022-08-03T02:43:12.411Z,101316.31
2022-08-03T02:45:47.269Z,101309.41
2022-08-03T02:48:23.510Z,101311.56
2022-08-03T02:50:57.652Z,101313.78
2022-08-03T02:53:32.738Z,101321.47
2022-08-03T02:56:05.870Z,101322.56
2022-08-03T02:58:39.578Z,101320.09
2022-08-03T03:01:12.871Z,101316.75
2022-08-03T03:03:45.440Z,101317.00
2022-08-03T03:06:21.673Z,101315.34
2022-08-03T03:08:59.641Z,101314.50
2022-08-03T03:11:32.678Z,101313.69
2022-08-03T03:14:05.821Z,101309.22
2022-08-03T03:16:42.328Z,101313.34
2022-08-03T03:19:14.777Z,101317.47
2022-08-03T03:21:47.577Z,101310.53
2022-08-03T03:24:20.181Z,101313.56
2022-08-03T03:26:52.956Z,101319.56
2022-08-03T03:29:25.235Z,101316.25
2022-08-03T03:31:57.823Z,101323.13
2022-08-03T03:34:30.758Z,101314.00
2022-08-03T03:37:03.209Z,101320.63
2022-08-03T03:39:36.614Z,101320.63
2022-08-03T03:42:09.185Z,101326.16
2022-08-03T03:44:41.435Z,101317.88
2022-08-03T03:47:13.854Z,101311.22
2022-08-03T03:49:46.891Z,101319.28
2022-08-03T03:52:20.653Z,101316.75
2022-08-03T03:54:55.405Z,101319.28
2022-08-03T03:57:31.240Z,101318.44
2022-08-03T04:00:04.572Z,101316.75
2022-08-03T04:02:36.867Z,101323.13
2022-08-03T04:05:28.421Z,101323.41
2022-08-03T04:08:22.057Z,101322.81
2022-08-03T04:11:42.557Z,101316.09
2022-08-03T04:14:29.202Z,101317.13
2022-08-03T04:17:06.163Z,101312.13
2022-08-03T04:19:48.091Z,101317.66
2022-08-03T04:22:23.087Z,101315.38
2022-08-03T04:25:08.375Z,101320.91
2022-08-03T04:27:41.757Z,101320.06
2022-08-03T04:30:14.669Z,101316.50
2022-08-03T04:32:52.079Z,101316.50
2022-08-03T04:35:26.034Z,101318.16
2022-08-03T04:38:19.709Z,101324.25
2022-08-03T04:40:53.075Z,101322.06
2022-08-03T04:43:26.203Z,101313.78
2022-08-03T04:45:59.711Z,101318.22
2022-08-03T04:48:32.491Z,101323.47
2022-08-03T04:51:06.259Z,101320.47
2022-08-03T04:53:39.735Z,101316.59
2022-08-03T04:56:12.358Z,101327.41
2022-08-03T04:58:44.926Z,101335.44
2022-08-03T05:01:17.727Z,101338.19
2022-08-03T05:03:50.500Z,101331.81
2022-08-03T05:06:25.015Z,101336.50
2022-08-03T05:08:57.424Z,101335.69
2022-08-03T05:11:32.575Z,101333.75
2022-08-03T05:14:05.073Z,101334.59
2022-08-03T05:16:37.311Z,101332.66
2022-08-03T05:19:09.807Z,101339.38
2022-08-03T05:21:52.691Z,101334.44
2022-08-03T05:24:27.199Z,101340.50
2022-08-03T05:26:59.306Z,101340.50
2022-08-03T05:29:31.565Z,101340.03
2022-08-03T05:32:08.155Z,101343.34
2022-08-03T05:34:40.819Z,101338.41
2022-08-03T05:37:13.152Z,101338.97
2022-08-03T05:39:45.325Z,101331.84
2022-08-03T05:42:18.023Z,101346.22
2022-08-03T05:44:50.496Z,101335.75
2022-08-03T05:47:23.739Z,101338.59
2022-08-03T05:49:55.911Z,101332.53
2022-08-03T05:52:28.128Z,101330.06
2022-08-03T05:55:00.684Z,101333.19
2022-08-03T05:57:33.065Z,101327.94
2022-08-03T06:00:07.688Z,101338.22
2022-08-03T06:02:44.247Z,101331.06
2022-08-03T06:05:16.639Z,101332.50
2022-08-03T06:07:48.936Z,101340.00
2022-08-03T06:10:36.216Z,101331.19
2022-08-03T06:13:10.326Z,101337.59
2022-08-03T06:15:42.588Z,101325.78
2022-08-03T06:18:14.784Z,101332.72
2022-08-03T06:20:49.310Z,101334.69
2022-08-03T06:23:52.866Z,101328.38
2022-08-03T06:26:17.263Z,101331.19
2022-08-03T06:28:53.016Z,101333.16
2022-08-03T06:31:32.826Z,101339.84
2022-08-03T06:34:33.361Z,101338.19
2022-08-03T06:37:01.951Z,101338.25
2022-08-03T06:39:37.462Z,101338.28
2022-08-03T06:42:10.622Z,101340.00
2022-08-03T06:44:43.455Z,101350.00
2022-08-03T06:47:15.605Z,101335.66
2022-08-03T06:50:12.772Z,101339.59
2022-08-03T06:52:40.297Z,101340.81
2022-08-03T06:55:12.497Z,101344.16
2022-08-03T06:57:44.721Z,101339.25
2022-08-03T07:00:18.100Z,101345.34
2022-08-03T07:02:53.600Z,101339.59
2022-08-03T07:05:28.714Z,101341.00
2022-08-03T07:08:03.276Z,101336.31
2022-08-03T07:10:35.458Z,101347.16
2022-08-03T07:13:07.718Z,101341.38
2022-08-03T07:15:55.385Z,101344.47
2022-08-03T07:18:29.871Z,101357.53
2022-08-03T07:21:02.384Z,101353.41
2022-08-03T07:23:34.731Z,101349.84
2022-08-03T07:26:06.956Z,101360.13
2022-08-03T07:28:39.251Z,101357.38
2022-08-03T07:31:11.493Z,101350.19
2022-08-03T07:33:43.676Z,101351.31
2022-08-03T07:36:16.100Z,101354.66
2022-08-03T07:38:48.248Z,101358.56
2022-08-03T07:41:20.448Z,101353.84
2022-08-03T07:43:52.635Z,101361.34
2022-08-03T07:46:24.896Z,101358.81
2022-08-03T07:48:59.207Z,101353.28
2022-08-03T07:51:32.513Z,101350.22
2022-08-03T07:54:05.149Z,101358.50
2022-08-03T07:56:37.737Z,101352.38
2022-08-03T07:59:10.142Z,101342.91
2022-08-03T08:01:42.688Z,101356.78
2022-08-03T08:04:14.930Z,101352.84
2022-08-03T08:06:47.182Z,101356.16
2022-08-03T08:09:19.364Z,101350.03
2022-08-03T08:11:51.527Z,101356.69
2022-08-03T08:14:23.847Z,101346.63
2022-08-03T08:16:56.252Z,101350.47
2022-08-03T08:19:28.552Z,101337.06
2022-08-03T08:22:04.709Z,101348.16
2022-08-03T08:24:37.853Z,101348.44
2022-08-03T08:27:12.300Z,101347.03
2022-08-03T08:29:47.960Z,101344.78
2022-08-03T08:32:27.631Z,101338.66
2022-08-03T08:34:59.949Z,101336.41
2022-08-03T08:37:32.792Z,101340.88
2022-08-03T08:40:06.640Z,101336.13
2022-08-03T08:42:57.571Z,101341.09
2022-08-03T08:45:31.018Z,101348.88
2022-08-03T08:48:07.934Z,101346.91
2022-08-03T08:50:40.691Z,101342.44
2022-08-03T08:53:18.100Z,101349.09
2022-08-03T08:55:58.828Z,101351.00
2022-08-03T08:58:38.687Z,101354.03
2022-08-03T09:01:11.129Z,101349.53
2022-08-03T09:03:43.296Z,101351.50
2022-08-03T09:06:16.194Z,101362.63
2022-08-03T09:08:48.423Z,101355.38
2022-08-03T09:11:53.692Z,101348.97
2022-08-03T09:14:39.166Z,101355.91
2022-08-03T09:17:16.989Z,101351.75
2022-08-03T09:20:09.286Z,101342.03
2022-08-03T09:23:20.224Z,101342.59
2022-08-03T09:26:01.715Z,101348.94
2022-08-03T09:29:01.152Z,101347.22
2022-08-03T09:31:32.176Z,101348.03
2022-08-03T09:34:05.900Z,101351.56
2022-08-03T09:36:46.700Z,101343.16
2022-08-03T09:39:40.313Z,101351.50
2022-08-03T09:42:23.970Z,101357.63
2022-08-03T09:44:58.037Z,101344.28
2022-08-03T09:47:32.700Z,101344.75
2022-08-03T09:50:08.941Z,101340.25
2022-08-03T09:52:51.905Z,101343.53
2022-08-03T09:56:33.688Z,101335.09
2022-08-03T09:58:17.303Z,101337.22
2022-08-03T10:01:04.306Z,101345.84
2022-08-03T10:04:02.818Z,101330.19
2022-08-03T10:06:31.907Z,101324.53
2022-08-03T10:09:16.148Z,101345.66
2022-08-03T10:11:49.466Z,101330.88
2022-08-03T10:14:22.708Z,101335.00
2022-08-03T10:16:54.913Z,101328.84
2022-08-03T10:19:27.378Z,101333.81
2022-08-03T10:22:19.930Z,101332.97
2022-08-03T10:25:05.478Z,101341.13
2022-08-03T10:27:40.357Z,101331.97
2022-08-03T10:30:13.297Z,101325.28
2022-08-03T10:33:49.864Z,101326.34
2022-08-03T10:36:12.811Z,101323.50
2022-08-03T10:38:52.533Z,101323.50
2022-08-03T10:41:27.264Z,101320.09
2022-08-03T10:44:10.329Z,101316.72
2022-08-03T10:46:45.216Z,101312.22
2022-08-03T10:49:34.640Z,101321.09
2022-08-03T10:52:13.365Z,101309.94
2022-08-03T10:55:18.803Z,101314.09
2022-08-03T10:57:58.294Z,101320.50
2022-08-03T11:00:49.411Z,101318.22
2022-08-03T11:03:21.880Z,101313.41
2022-08-03T11:06:15.498Z,101316.69
2022-08-03T11:08:49.402Z,101309.06
2022-08-03T11:11:32.153Z,101304.53
2022-08-03T11:14:05.927Z,101305.06
2022-08-03T11:16:45.298Z,101312.63
2022-08-03T11:19:22.639Z,101310.06
2022-08-03T11:22:00.144Z,101308.06
2022-08-03T11:24:41.143Z,101305.69
2022-08-03T11:27:16.401Z,101311.94
2022-08-03T11:30:19.426Z,101303.03
2022-08-03T11:32:53.111Z,101306.25
2022-08-03T11:35:30.550Z,101313.63
2022-08-03T11:38:05.543Z,101309.16
2022-08-03T11:40:54.624Z,101298.63
2022-08-03T11:43:35.154Z,101302.88
2022-08-03T11:46:09.082Z,101302.16
2022-08-03T11:48:43.705Z,101293.97
2022-08-03T11:51:20.694Z,101302.16
2022-08-03T11:53:57.648Z,101292.75
2022-08-03T11:56:48.124Z,101295.97
2022-08-03T11:59:32.589Z,101298.38
2022-08-03T12:02:12.094Z,101294.50
2022-08-03T12:05:01.596Z,101283.84
2022-08-03T12:08:03.642Z,101288.06
2022-08-03T12:10:26.562Z,101283.41
2022-08-03T12:13:02.065Z,101283.31
2022-08-03T12:15:35.202Z,101278.03
2022-08-03T12:18:17.903Z,101281.31
2022-08-03T12:20:51.972Z,101277.19
2022-08-03T12:23:27.404Z,101266.19
2022-08-03T12:26:06.980Z,101265.84
2022-08-03T12:28:49.758Z,101270.81
2022-08-03T12:31:22.503Z,101265.16
2022-08-03T12:33:56.371Z,101264.34
2022-08-03T12:36:30.603Z,101260.63
2022-08-03T12:39:05.909Z,101263.69
2022-08-03T12:41:40.923Z,101260.56
2022-08-03T12:44:13.710Z,101259.84
2022-08-03T12:46:48.072Z,101270.53
2022-08-03T12:49:20.790Z,101260.63
2022-08-03T12:51:52.843Z,101261.72
2022-08-03T12:54:28.038Z,101257.06
2022-08-03T12:57:07.197Z,101251.59
2022-08-03T12:59:53.314Z,101253.09
2022-08-03T13:02:27.644Z,101254.91
2022-08-03T13:05:13.122Z,101258.19
2022-08-03T13:07:47.418Z,101265.22
2022-08-03T13:10:31.347Z,101262.63
2022-08-03T13:13:04.766Z,101261.88
2022-08-03T13:15:47.541Z,101256.94
2022-08-03T13:18:20.544Z,101258.81
2022-08-03T13:20:52.910Z,101256.16
2022-08-03T13:23:25.344Z,101253.78
2022-08-03T13:25:57.821Z,101245.16
2022-08-03T13:28:30.318Z,101242.38
2022-08-03T13:31:02.707Z,101246.94
2022-08-03T13:33:36.932Z,101249.88
2022-08-03T13:36:09.203Z,101255.25
2022-08-03T13:38:41.483Z,101253.66
2022-08-03T13:41:16.278Z,101245.19
2022-08-03T13:44:01.717Z,101251.38
2022-08-03T13:46:42.564Z,101254.72
2022-08-03T13:49:15.043Z,101240.91
2022-08-03T13:51:47.354Z,101232.72
2022-08-03T13:54:19.738Z,101246.59
2022-08-03T13:56:57.801Z,101234.28
2022-08-03T13:59:33.159Z,101228.56
2022-08-03T14:02:05.668Z,101231.88
2022-08-03T14:04:38.039Z,101233.53
2022-08-03T14:07:10.511Z,101227.81
2022-08-03T14:09:43.058Z,101226.19
2022-08-03T14:12:15.579Z,101224.16
2022-08-03T14:14:47.827Z,101217.19
2022-08-03T14:17:23.046Z,101218.44
2022-08-03T14:19:55.923Z,101223.69
2022-08-03T14:22:30.187Z,101219.13
2022-08-03T14:25:02.616Z,101214.56
2022-08-03T14:27:37.172Z,101218.66
2022-08-03T14:30:10.056Z,101213.75
2022-08-03T14:32:42.748Z,101220.25
2022-08-03T14:35:14.964Z,101219.28
2022-08-03T14:37:47.176Z,101213.59
2022-08-03T14:40:20.448Z,101221.09
2022-08-03T14:42:53.523Z,101213.84
2022-08-03T14:45:26.025Z,101207.38
2022-08-03T14:50:28.836Z,101203.31
2022-08-03T14:50:52.949Z,101218.03
2022-08-03T14:53:25.291Z,101213.09
2022-08-03T14:55:57.580Z,101213.88
2022-08-03T14:58:29.867Z,101203.13
2022-08-03T15:01:02.344Z,101206.97
2022-08-03T15:03:35.111Z,101208.03
2022-08-03T15:06:07.259Z,101195.06
2022-08-03T15:08:39.731Z,101191.19
2022-08-03T15:11:11.978Z,101193.00
2022-08-03T15:13:44.354Z,101202.34
2022-08-03T15:16:16.685Z,101197.75
2022-08-03T15:18:49.046Z,101199.22
2022-08-03T15:21:46.162Z,101193.63
2022-08-03T15:24:14.037Z,101184.94
2022-08-03T15:26:46.323Z,101188.66
2022-08-03T15:30:06.831Z,101185.31
2022-08-03T15:32:11.651Z,101191.25
2022-08-03T15:34:50.247Z,101175.56
2022-08-03T15:37:25.742Z,101180.00
2022-08-03T15:40:00.329Z,101188.94
2022-08-03T15:42:33.634Z,101196.69
2022-08-03T15:45:06.701Z,101188.41
2022-08-03T15:47:39.569Z,101184.84
2022-08-03T15:50:12.159Z,101191.81
2022-08-03T15:52:44.403Z,101188.25
2022-08-03T15:55:17.366Z,101189.63
2022-08-03T15:59:09.527Z,101193.63
2022-08-03T16:00:42.889Z,101185.66
2022-08-03T16:03:15.318Z,101191.91
2022-08-03T16:05:47.779Z,101191.97
2022-08-03T16:08:20.479Z,101193.38
2022-08-03T16:10:52.808Z,101186.09
2022-08-03T16:14:05.537Z,101186.63
2022-08-03T16:16:18.209Z,101179.63
2022-08-03T16:18:50.580Z,101179.69
2022-08-03T16:21:22.940Z,101186.19
2022-08-03T16:24:01.979Z,101186.41
2022-08-03T16:26:37.960Z,101186.75
2022-08-03T16:29:22.327Z,101184.16
2022-08-03T16:31:55.836Z,101185.69
2022-08-03T16:34:28.110Z,101185.75
2022-08-03T16:37:11.720Z,101191.81
2022-08-03T16:39:52.680Z,101195.22
2022-08-03T16:42:25.009Z,101196.38
2022-08-03T16:44:57.195Z,101198.06
2022-08-03T16:47:29.971Z,101195.44
2022-08-03T16:50:07.267Z,101196.75
2022-08-03T16:52:47.319Z,101194.31
2022-08-03T16:55:51.727Z,101196.75
2022-08-03T16:58:15.206Z,101195.59
2022-08-03T17:00:49.602Z,101196.28
2022-08-03T17:03:24.381Z,101196.31
2022-08-03T17:05:59.474Z,101201.47
2022-08-03T17:08:32.508Z,101198.81
2022-08-03T17:11:05.029Z,101194.19
2022-08-03T17:13:39.822Z,101202.81
2022-08-03T17:16:15.453Z,101192.25
2022-08-03T17:18:55.073Z,101196.38
2022-08-03T17:21:29.702Z,101191.75
2022-08-03T17:24:21.230Z,101193.59
2022-08-03T17:27:01.657Z,101195.22
2022-08-03T17:29:37.099Z,101194.25
2022-08-03T17:32:21.779Z,101193.91
2022-08-03T17:34:54.785Z,101196.88
2022-08-03T17:37:57.592Z,101198.66
2022-08-03T17:40:19.636Z,101201.63
2022-08-03T17:42:55.209Z,101197.84
2022-08-03T17:45:52.100Z,101199.16
2022-08-03T17:48:20.841Z,101196.50
2022-08-03T17:51:26.587Z,101193.88
2022-08-03T17:54:06.124Z,101198.47
2022-08-03T17:57:22.522Z,101196.34
2022-08-03T18:00:26.599Z,101196.50
2022-08-03T18:03:20.913Z,101201.72
2022-08-03T18:06:10.468Z,101205.34
2022-08-03T18:08:52.433Z,101205.81
2022-08-03T18:11:35.517Z,101211.38
2022-08-03T18:14:17.091Z,101207.06
2022-08-03T18:17:10.307Z,101213.13
2022-08-03T18:20:02.551Z,101214.13
2022-08-03T18:22:36.229Z,101220.38
2022-08-03T18:25:09.296Z,101208.13
2022-08-03T18:27:47.728Z,101221.63
2022-08-03T18:30:20.510Z,101212.22
2022-08-03T18:34:16.977Z,101212.88
2022-08-03T18:35:55.712Z,101215.16
2022-08-03T18:38:28.768Z,101214.66
2022-08-03T18:41:02.026Z,101205.25
2022-08-03T18:43:46.648Z,101208.69
2022-08-03T18:46:48.587Z,101214.44
2022-08-03T18:49:33.371Z,101218.50
2022-08-03T18:52:17.975Z,101218.66
2022-08-03T18:55:09.491Z,101223.25
2022-08-03T18:58:15.786Z,101235.22
2022-08-03T19:01:04.861Z,101234.28
2022-08-03T19:03:50.251Z,101225.53
2022-08-03T19:06:24.562Z,101229.56
2022-08-03T19:09:24.579Z,101234.78
2022-08-03T19:12:14.534Z,101237.22
2022-08-03T19:15:04.363Z,101243.22
2022-08-03T19:17:50.212Z,101249.28
2022-08-03T19:20:27.171Z,101248.84
2022-08-03T19:23:01.212Z,101248.44
2022-08-03T19:25:38.636Z,101250.84
2022-08-03T19:28:12.831Z,101263.28
2022-08-03T19:30:46.501Z,101258.44
2022-08-03T19:33:29.955Z,101260.50
2022-08-03T19:36:03.298Z,101253.66
2022-08-03T19:38:38.437Z,101256.56
2022-08-03T19:41:14.096Z,101264.56
2022-08-03T19:43:57.748Z,101265.75
2022-08-03T19:46:35.147Z,101269.78
2022-08-03T19:49:16.243Z,101264.59
2022-08-03T19:51:59.382Z,101266.16
2022-08-03T19:54:39.600Z,101272.47
2022-08-03T19:57:33.456Z,101266.44
2022-08-03T20:00:08.246Z,101271.59
2022-08-03T20:02:41.328Z,101273.69
2022-08-03T20:05:15.305Z,101276.53
2022-08-03T20:07:48.645Z,101279.69
2022-08-03T20:10:21.619Z,101278.13
2022-08-03T20:12:54.499Z,101275.41
2022-08-03T20:15:31.901Z,101276.63
2022-08-03T20:18:04.556Z,101276.44
2022-08-03T20:20:37.965Z,101279.28
2022-08-03T20:23:17.242Z,101283.63
2022-08-03T20:26:00.742Z,101286.78
2022-08-03T20:28:51.142Z,101290.53
2022-08-03T20:31:32.602Z,101290.69
2022-08-03T20:34:09.152Z,101293.63
2022-08-03T20:36:41.815Z,101294.31
2022-08-03T20:39:14.128Z,101298.28
2022-08-03T20:41:46.497Z,101295.22
2022-08-03T20:44:18.724Z,101300.59
2022-08-03T20:47:00.694Z,101297.03
2022-08-03T20:49:45.597Z,101303.50
2022-08-03T20:52:19.322Z,101303.53
2022-08-03T20:54:52.814Z,101312.50
2022-08-03T20:57:25.829Z,101310.28
2022-08-03T21:00:17.880Z,101310.06
2022-08-03T21:02:50.415Z,101322.09
2022-08-03T21:08:15.808Z,101312.19
2022-08-03T21:10:49.031Z,101315.88
2022-08-03T21:13:13.764Z,101322.16
2022-08-03T21:13:32.006Z,101319.53
2022-08-03T21:16:13.854Z,101315.16
2022-08-03T21:18:51.970Z,101326.88
2022-08-03T21:21:24.528Z,101323.03
2022-08-03T21:23:59.256Z,101328.66
2022-08-03T21:26:33.760Z,101325.94
2022-08-03T21:29:06.520Z,101316.47
2022-08-03T21:31:39.467Z,101315.38
2022-08-03T21:34:11.762Z,101317.91
2022-08-03T21:36:44.336Z,101319.34
2022-08-03T21:39:16.532Z,101321.03
2022-08-03T21:41:48.791Z,101321.63
2022-08-03T21:44:28.717Z,101319.44
2022-08-03T21:47:02.489Z,101320.84
2022-08-03T21:50:06.082Z,101327.28
2022-08-03T21:52:29.322Z,101323.44
2022-08-03T21:55:05.293Z,101327.91
2022-08-03T21:57:39.852Z,101326.84
2022-08-03T22:00:17.174Z,101324.09
2022-08-03T22:02:55.440Z,101322.16
2022-08-03T22:05:42.494Z,101331.38
2022-08-03T22:08:15.603Z,101325.81
2022-08-03T22:10:49.079Z,101326.41
2022-08-03T22:13:44.209Z,101324.22
2022-08-03T22:16:14.792Z,101332.59
2022-08-03T22:18:47.235Z,101327.59
2022-08-03T22:21:27.657Z,101330.97
2022-08-03T22:24:08.864Z,101336.56
2022-08-03T22:27:01.831Z,101326.00
2022-08-03T22:29:37.241Z,101334.91
2022-08-03T22:32:10.419Z,101331.03
2022-08-03T22:34:43.239Z,101342.75
2022-08-03T22:37:20.460Z,101336.06
2022-08-03T22:39:55.650Z,101335.00
2022-08-03T22:42:27.991Z,101335.56
2022-08-03T22:45:02.233Z,101339.47
2022-08-03T22:47:36.600Z,101347.56
2022-08-03T22:50:31.421Z,101345.31
2022-08-03T22:53:03.819Z,101350.34
2022-08-03T22:55:36.669Z,101353.41
2022-08-03T22:58:09.522Z,101355.63
2022-08-03T23:00:48.383Z,101354.22
2022-08-03T23:04:00.176Z,101352.84
2022-08-03T23:06:20.138Z,101351.47
2022-08-03T23:08:52.786Z,101350.06
2022-08-03T23:11:25.872Z,101349.53
2022-08-03T23:13:59.625Z,101348.44
2022-08-03T23:16:36.666Z,101349.84
2022-08-03T23:19:17.118Z,101346.81
2022-08-03T23:22:01.108Z,101348.47
2022-08-03T23:24:36.961Z,101345.72
2022-08-03T23:27:09.590Z,101346.56
2022-08-03T23:29:42.932Z,101347.94
2022-08-03T23:32:15.635Z,101355.19
2022-08-03T23:35:07.262Z,101352.97
2022-08-03T23:38:04.333Z,101344.38
2022-08-03T23:40:33.509Z,101352.69
2022-08-03T23:43:05.812Z,101347.16
2022-08-03T23:45:39.661Z,101349.69
2022-08-03T23:48:12.558Z,101346.59
2022-08-03T23:50:46.695Z,101356.31
2022-08-03T23:53:26.259Z,101355.22
2022-08-03T23:56:27.824Z,101354.09
2022-08-03T23:59:16.141Z,101347.44
